Time;durP1;ratioP1;P1;durP2;ratioP2;P2;SDS_P1;SDS_P2;PMS_P1;PMS_P2;Temp;Humidity;BMP_temperature;BMP_pressure;BME280_temperature;BME280_humidity;BME280_pressure;Samples;Min_cycle;Max_cycle;Signal;HPM_P1;HPM_P2
2023/05/12 00:01:15;;;;;;;;;;;15.20;88.00;;;;;;5019424;28;19992;-77
2023/05/12 00:03:42;;;;;;;;;;;15.20;88.00;;;;;;5021500;28;19983;-76
2023/05/12 00:06:08;;;;;;;;;;;15.10;88.00;;;;;;5019908;28;19996;-76
2023/05/12 00:08:35;;;;;;;;;;;15.10;88.00;;;;;;5020978;28;19980;-77
2023/05/12 00:11:02;;;;;;;;;;;15.20;88.10;;;;;;5020589;28;20000;-76
2023/05/12 00:13:30;;;;;;;;;;;15.10;88.10;;;;;;5021486;28;19983;-76
2023/05/12 00:15:57;;;;;;;;;;;15.10;88.20;;;;;;5020493;28;20000;-76
2023/05/12 00:18:24;;;;;;;;;;;15.10;88.20;;;;;;5021180;28;19983;-77
2023/05/12 00:20:52;;;;;;;;;;;15.10;88.30;;;;;;5020525;28;19976;-76
2023/05/12 00:23:19;;;;;;;;;;;15.00;88.30;;;;;;5021215;28;19972;-76
2023/05/12 00:25:46;;;;;;;;;;;15.00;88.40;;;;;;5024714;28;20433;-76
2023/05/12 00:28:12;;;;;;;;;;;15.00;88.40;;;;;;5021999;28;20000;-76
2023/05/12 00:30:40;;;;;;;;;;;15.00;88.40;;;;;;5021430;28;20003;-77
2023/05/12 00:33:06;;;;;;;;;;;15.00;88.60;;;;;;5018988;28;19980;-77
2023/05/12 00:35:33;;;;;;;;;;;15.00;88.60;;;;;;5019356;28;19996;-76
2023/05/12 00:38:00;;;;;;;;;;;15.00;88.70;;;;;;5024133;28;20450;-76
2023/05/12 00:40:26;;;;;;;;;;;15.00;88.70;;;;;;5020472;28;21177;-76
2023/05/12 00:42:53;;;;;;;;;;;15.00;88.70;;;;;;5020846;28;19976;-77
2023/05/12 00:45:20;;;;;;;;;;;14.90;88.70;;;;;;5023915;28;20512;-76
2023/05/12 00:47:50;;;;;;;;;;;14.90;88.70;;;;;;5020741;28;20046;-76
2023/05/12 00:50:17;;;;;;;;;;;14.90;88.80;;;;;;5014948;28;19980;-77
2023/05/12 00:52:43;;;;;;;;;;;14.90;88.80;;;;;;5018780;28;19979;-77
2023/05/12 00:55:10;;;;;;;;;;;14.90;88.80;;;;;;5016388;28;19993;-76
2023/05/12 00:57:37;;;;;;;;;;;14.90;88.90;;;;;;5018191;28;19988;-77
2023/05/12 01:00:03;;;;;;;;;;;14.80;88.90;;;;;;5016449;28;20478;-76
2023/05/12 01:02:30;;;;;;;;;;;14.80;89.00;;;;;;5019522;28;19999;-76
2023/05/12 01:04:58;;;;;;;;;;;14.80;89.10;;;;;;5019692;28;20668;-76
2023/05/12 01:07:25;;;;;;;;;;;14.80;89.10;;;;;;5021484;28;19996;-76
2023/05/12 01:09:53;;;;;;;;;;;14.80;89.10;;;;;;5017218;28;20023;-76
2023/05/12 01:12:20;;;;;;;;;;;14.80;89.20;;;;;;5020719;28;19983;-77
2023/05/12 01:14:47;;;;;;;;;;;14.80;89.20;;;;;;5019277;28;19999;-76
2023/05/12 01:17:14;;;;;;;;;;;14.70;89.20;;;;;;5021020;28;20014;-76
2023/05/12 01:19:42;;;;;;;;;;;14.70;89.30;;;;;;5016900;28;19984;-76
2023/05/12 01:22:11;;;;;;;;;;;14.70;89.30;;;;;;5021755;28;19980;-76
2023/05/12 01:24:41;;;;;;;;;;;14.70;89.30;;;;;;5019773;28;19984;-76
2023/05/12 01:27:09;;;;;;;;;;;14.70;89.30;;;;;;5020258;28;19988;-76
2023/05/12 01:29:36;;;;;;;;;;;14.70;89.40;;;;;;5019274;28;19983;-76
2023/05/12 01:32:03;;;;;;;;;;;14.70;89.40;;;;;;5018294;28;20346;-76
2023/05/12 01:34:30;;;;;;;;;;;14.70;89.40;;;;;;5019651;28;20364;-76
2023/05/12 01:36:56;;;;;;;;;;;14.70;89.50;;;;;;5019208;28;19988;-76
2023/05/12 01:39:23;;;;;;;;;;;14.60;89.50;;;;;;5017261;28;19980;-76
2023/05/12 01:41:49;;;;;;;;;;;14.60;89.50;;;;;;5020903;28;19972;-76
2023/05/12 01:44:17;;;;;;;;;;;14.60;89.60;;;;;;5017496;28;19987;-76
2023/05/12 01:46:44;;;;;;;;;;;14.60;89.60;;;;;;5019560;28;19992;-76
2023/05/12 01:49:11;;;;;;;;;;;14.60;89.60;;;;;;5019818;28;20440;-76
2023/05/12 01:51:37;;;;;;;;;;;14.60;89.70;;;;;;5018355;28;20706;-76
2023/05/12 01:54:04;;;;;;;;;;;14.60;89.70;;;;;;5018890;28;19972;-76
2023/05/12 01:56:30;;;;;;;;;;;14.60;89.80;;;;;;5020576;28;20003;-77
2023/05/12 01:58:57;;;;;;;;;;;14.60;90.20;;;;;;5019652;28;19983;-77
2023/05/12 02:01:27;;;;;;;;;;;14.60;89.90;;;;;;5020486;28;19988;-76
2023/05/12 02:03:54;;;;;;;;;;;14.50;89.80;;;;;;5016970;28;20000;-76
2023/05/12 02:06:21;;;;;;;;;;;14.50;89.90;;;;;;5018069;28;20649;-76
2023/05/12 02:08:47;;;;;;;;;;;14.50;89.90;;;;;;5019323;28;20532;-76
2023/05/12 02:11:14;;;;;;;;;;;14.50;90.00;;;;;;5019549;28;19982;-76
2023/05/12 02:13:43;;;;;;;;;;;14.40;90.00;;;;;;5017344;28;19979;-76
2023/05/12 02:16:09;;;;;;;;;;;14.50;90.00;;;;;;5017582;28;20444;-76
2023/05/12 02:18:37;;;;;;;;;;;14.50;90.00;;;;;;5021962;28;19980;-76
2023/05/12 02:21:04;;;;;;;;;;;14.50;90.00;;;;;;5018422;28;19972;-76
2023/05/12 02:23:30;;;;;;;;;;;14.50;90.00;;;;;;5015049;28;19972;-76
2023/05/12 02:25:57;;;;;;;;;;;14.50;90.00;;;;;;5021255;28;19996;-76
2023/05/12 02:28:23;;;;;;;;;;;14.40;90.00;;;;;;5018776;28;19992;-77
2023/05/12 02:30:51;;;;;;;;;;;14.40;90.10;;;;;;5019467;28;19999;-76
2023/05/12 02:33:18;;;;;;;;;;;14.40;90.10;;;;;;5017579;28;19995;-76
2023/05/12 02:35:46;;;;;;;;;;;14.40;90.10;;;;;;5020160;28;19999;-76
2023/05/12 02:38:13;;;;;;;;;;;14.40;90.10;;;;;;5020108;28;20924;-76
2023/05/12 02:40:39;;;;;;;;;;;14.40;90.10;;;;;;5016060;28;19984;-76
2023/05/12 02:43:06;;;;;;;;;;;14.40;90.20;;;;;;5019161;28;19972;-76
2023/05/12 02:45:32;;;;;;;;;;;14.40;90.20;;;;;;5016890;28;20004;-76
2023/05/12 02:47:59;;;;;;;;;;;14.40;90.20;;;;;;5019468;28;19988;-76
2023/05/12 02:50:26;;;;;;;;;;;14.30;90.20;;;;;;5018073;28;19979;-76
2023/05/12 02:52:53;;;;;;;;;;;14.30;90.20;;;;;;5019206;28;19980;-77
2023/05/12 02:55:20;;;;;;;;;;;14.30;90.20;;;;;;5019187;28;19999;-76
2023/05/12 02:57:47;;;;;;;;;;;14.30;90.60;;;;;;5022639;28;19980;-76
2023/05/12 03:00:13;;;;;;;;;;;14.30;90.20;;;;;;5021973;28;19980;-76
2023/05/12 03:02:40;;;;;;;;;;;14.30;90.30;;;;;;5022807;28;20575;-76
2023/05/12 03:05:07;;;;;;;;;;;14.30;90.30;;;;;;5022906;28;19992;-76
2023/05/12 03:07:34;;;;;;;;;;;14.20;90.30;;;;;;5024859;28;20637;-76
2023/05/12 03:10:02;;;;;;;;;;;14.20;90.30;;;;;;5023419;28;19980;-76
2023/05/12 03:12:29;;;;;;;;;;;14.20;90.30;;;;;;5023890;28;19987;-77
2023/05/12 03:14:56;;;;;;;;;;;14.20;90.30;;;;;;5020341;28;20224;-76
2023/05/12 03:17:22;;;;;;;;;;;14.20;90.30;;;;;;5023223;28;19999;-76
2023/05/12 03:19:49;;;;;;;;;;;14.20;90.30;;;;;;5019673;28;19990;-76
2023/05/12 03:22:15;;;;;;;;;;;14.20;90.40;;;;;;5023733;28;19987;-77
2023/05/12 03:24:42;;;;;;;;;;;14.20;90.40;;;;;;5022972;28;20004;-76
2023/05/12 03:27:10;;;;;;;;;;;14.10;90.40;;;;;;5025601;28;19984;-76
2023/05/12 03:29:36;;;;;;;;;;;14.10;90.40;;;;;;5020976;28;19984;-76
2023/05/12 03:32:03;;;;;;;;;;;14.10;90.40;;;;;;5019445;28;20186;-76
2023/05/12 03:34:30;;;;;;;;;;;14.10;90.40;;;;;;5022920;28;19980;-76
2023/05/12 03:36:57;;;;;;;;;;;14.10;90.50;;;;;;5023719;28;20419;-76
2023/05/12 03:39:23;;;;;;;;;;;14.10;90.50;;;;;;5022251;28;20838;-76
2023/05/12 03:41:50;;;;;;;;;;;14.10;90.50;;;;;;5020386;28;19980;-76
2023/05/12 03:44:18;;;;;;;;;;;14.00;90.50;;;;;;5023787;28;19980;-77
2023/05/12 03:46:45;;;;;;;;;;;14.10;90.50;;;;;;5019617;28;19995;-76
2023/05/12 03:49:11;;;;;;;;;;;14.00;90.50;;;;;;5024051;28;20000;-76
2023/05/12 03:51:38;;;;;;;;;;;14.00;90.50;;;;;;5020788;28;20079;-76
2023/05/12 03:54:04;;;;;;;;;;;14.00;90.70;;;;;;5021180;28;20496;-76
2023/05/12 03:56:31;;;;;;;;;;;14.00;90.50;;;;;;5019234;28;20454;-77
2023/05/12 03:58:57;;;;;;;;;;;14.00;90.50;;;;;;5018424;28;19975;-77
2023/05/12 04:01:25;;;;;;;;;;;14.00;90.50;;;;;;5020342;28;20793;-76
2023/05/12 04:03:52;;;;;;;;;;;14.00;90.50;;;;;;5019467;28;19980;-76
2023/05/12 04:06:18;;;;;;;;;;;14.00;90.60;;;;;;5022385;28;20826;-76
2023/05/12 04:08:45;;;;;;;;;;;14.00;90.60;;;;;;5022584;28;20495;-76
2023/05/12 04:11:12;;;;;;;;;;;14.00;90.60;;;;;;5021860;28;19976;-76
2023/05/12 04:13:39;;;;;;;;;;;13.90;90.60;;;;;;5018411;28;19985;-77
2023/05/12 04:16:06;;;;;;;;;;;13.90;90.60;;;;;;5017069;28;20758;-76
2023/05/12 04:18:35;;;;;;;;;;;13.90;90.60;;;;;;5019900;28;21137;-76
2023/05/12 04:21:02;;;;;;;;;;;13.90;90.60;;;;;;5019346;28;19972;-76
2023/05/12 04:23:28;;;;;;;;;;;13.90;90.60;;;;;;5022015;28;19979;-77
2023/05/12 04:25:55;;;;;;;;;;;13.90;90.70;;;;;;5025575;28;20031;-77
2023/05/12 04:28:21;;;;;;;;;;;13.90;90.70;;;;;;5019576;28;19996;-77
2023/05/12 04:30:48;;;;;;;;;;;13.90;90.70;;;;;;5018579;28;19996;-77
2023/05/12 04:33:14;;;;;;;;;;;13.80;90.70;;;;;;5019673;28;19983;-76
2023/05/12 04:35:42;;;;;;;;;;;13.80;90.70;;;;;;5020393;28;20003;-76
2023/05/12 04:38:09;;;;;;;;;;;13.80;90.80;;;;;;5020834;28;19976;-76
2023/05/12 04:40:35;;;;;;;;;;;13.80;90.80;;;;;;5018176;28;19980;-77
2023/05/12 04:43:02;;;;;;;;;;;13.80;90.80;;;;;;5020045;28;19983;-76
2023/05/12 04:45:29;;;;;;;;;;;13.80;90.80;;;;;;5019515;28;20043;-76
2023/05/12 04:47:55;;;;;;;;;;;13.80;90.80;;;;;;5018870;28;20031;-76
2023/05/12 04:50:22;;;;;;;;;;;13.80;90.90;;;;;;5021900;28;19979;-76
2023/05/12 04:52:50;;;;;;;;;;;13.80;91.20;;;;;;5022965;28;20655;-77
2023/05/12 04:55:16;;;;;;;;;;;13.60;92.50;;;;;;5021707;28;20000;-76
2023/05/12 04:57:43;;;;;;;;;;;13.50;92.80;;;;;;5019120;28;19979;-76
2023/05/12 05:00:10;;;;;;;;;;;13.50;92.80;;;;;;5016733;28;20025;-76
2023/05/12 05:02:36;;;;;;;;;;;13.50;92.70;;;;;;5017098;28;19984;-76
2023/05/12 05:05:03;;;;;;;;;;;13.50;92.70;;;;;;5015763;28;19992;-77
2023/05/12 05:07:30;;;;;;;;;;;13.50;92.60;;;;;;5024143;28;19983;-76
2023/05/12 05:09:57;;;;;;;;;;;13.50;92.50;;;;;;5018188;28;19996;-77
2023/05/12 05:12:24;;;;;;;;;;;13.50;92.40;;;;;;5020718;28;19984;-76
2023/05/12 05:14:51;;;;;;;;;;;13.50;92.70;;;;;;5018504;28;20122;-76
2023/05/12 05:17:17;;;;;;;;;;;13.60;92.30;;;;;;5020517;28;19992;-76
2023/05/12 05:19:44;;;;;;;;;;;13.60;92.20;;;;;;5017326;28;19980;-76
2023/05/12 05:22:10;;;;;;;;;;;13.60;92.20;;;;;;5019994;28;19980;-76
2023/05/12 05:24:37;;;;;;;;;;;13.60;92.10;;;;;;5020679;28;19987;-76
2023/05/12 05:27:05;;;;;;;;;;;13.60;92.00;;;;;;5019598;28;19976;-76
2023/05/12 05:29:32;;;;;;;;;;;13.60;92.00;;;;;;5018284;28;20014;-75
2023/05/12 05:31:58;;;;;;;;;;;13.60;92.00;;;;;;5017854;28;20704;-76
2023/05/12 05:34:25;;;;;;;;;;;13.60;91.90;;;;;;5020173;28;20055;-76
2023/05/12 05:36:51;;;;;;;;;;;13.60;91.90;;;;;;5017778;28;19980;-76
2023/05/12 05:39:18;;;;;;;;;;;13.60;91.90;;;;;;5018323;28;20429;-76
2023/05/12 05:41:44;;;;;;;;;;;13.60;91.90;;;;;;5018243;28;19976;-77
2023/05/12 05:44:12;;;;;;;;;;;13.60;91.90;;;;;;5019683;28;19980;-76
2023/05/12 05:46:39;;;;;;;;;;;13.60;91.90;;;;;;5018568;28;20007;-76
2023/05/12 05:49:05;;;;;;;;;;;13.60;91.80;;;;;;5020597;28;20003;-76
2023/05/12 05:51:32;;;;;;;;;;;13.60;91.80;;;;;;5014943;28;19984;-78
2023/05/12 05:53:58;;;;;;;;;;;13.60;91.80;;;;;;5019931;28;20426;-76
2023/05/12 05:56:25;;;;;;;;;;;13.60;91.80;;;;;;5020339;28;20003;-76
2023/05/12 05:58:52;;;;;;;;;;;13.60;91.80;;;;;;5019073;28;19980;-76
2023/05/12 06:01:20;;;;;;;;;;;13.60;91.80;;;;;;5020179;28;19992;-77
2023/05/12 06:03:46;;;;;;;;;;;13.60;91.80;;;;;;5020597;28;20087;-77
2023/05/12 06:06:13;;;;;;;;;;;13.60;91.80;;;;;;5017022;28;19999;-76
2023/05/12 06:08:39;;;;;;;;;;;13.60;91.80;;;;;;5019182;28;20027;-76
2023/05/12 06:11:06;;;;;;;;;;;13.60;91.80;;;;;;5018922;28;21880;-76
2023/05/12 06:13:32;;;;;;;;;;;13.60;91.80;;;;;;5019050;28;20976;-75
2023/05/12 06:15:59;;;;;;;;;;;13.60;91.80;;;;;;5027303;28;20003;-77
2023/05/12 06:18:27;;;;;;;;;;;13.60;91.80;;;;;;5018570;28;20059;-76
2023/05/12 06:20:53;;;;;;;;;;;13.70;91.80;;;;;;5026791;28;20046;-76
2023/05/12 06:23:20;;;;;;;;;;;13.60;91.80;;;;;;5022537;28;19976;-77
2023/05/12 06:25:48;;;;;;;;;;;13.60;91.80;;;;;;5021027;28;20482;-76
2023/05/12 06:28:14;;;;;;;;;;;13.60;91.80;;;;;;5019374;28;20474;-76
2023/05/12 06:30:41;;;;;;;;;;;13.60;91.80;;;;;;5015763;28;19996;-76
2023/05/12 06:33:07;;;;;;;;;;;13.60;91.80;;;;;;5019384;28;20019;-76
2023/05/12 06:35:35;;;;;;;;;;;13.60;91.80;;;;;;5024470;28;20003;-77
2023/05/12 06:38:02;;;;;;;;;;;13.60;91.80;;;;;;5021802;28;19984;-77
2023/05/12 06:40:28;;;;;;;;;;;13.60;91.80;;;;;;5016943;28;20312;-76
2023/05/12 06:42:55;;;;;;;;;;;13.60;91.70;;;;;;5024336;28;19991;-76
2023/05/12 06:45:22;;;;;;;;;;;13.60;91.70;;;;;;5031691;28;19999;-77
2023/05/12 06:47:49;;;;;;;;;;;13.60;91.70;;;;;;5022319;28;20022;-75
2023/05/12 06:50:16;;;;;;;;;;;13.60;91.70;;;;;;5025428;28;19992;-77
2023/05/12 06:52:44;;;;;;;;;;;13.60;91.70;;;;;;5021572;28;20067;-77
2023/05/12 06:55:10;;;;;;;;;;;13.60;91.80;;;;;;5022828;28;20000;-76
2023/05/12 06:57:37;;;;;;;;;;;13.60;91.80;;;;;;5021282;28;19984;-76
2023/05/12 07:00:04;;;;;;;;;;;13.70;91.80;;;;;;5024637;28;19976;-77
2023/05/12 07:02:30;;;;;;;;;;;13.70;91.80;;;;;;5022467;28;20054;-76
2023/05/12 07:04:57;;;;;;;;;;;13.60;91.70;;;;;;5020999;28;19992;-77
2023/05/12 07:07:23;;;;;;;;;;;13.70;91.70;;;;;;5020031;28;19980;-76
2023/05/12 07:09:51;;;;;;;;;;;13.70;91.80;;;;;;5025338;28;19996;-77
2023/05/12 07:12:18;;;;;;;;;;;13.70;91.80;;;;;;5026099;28;20382;-76
2023/05/12 07:14:44;;;;;;;;;;;13.70;91.80;;;;;;5021334;28;20014;-77
2023/05/12 07:17:11;;;;;;;;;;;13.70;91.80;;;;;;5020319;28;19988;-77
2023/05/12 07:19:38;;;;;;;;;;;13.70;91.80;;;;;;5022785;28;19987;-77
2023/05/12 07:22:05;;;;;;;;;;;13.70;91.80;;;;;;5025468;28;20080;-76
2023/05/12 07:24:32;;;;;;;;;;;13.70;91.80;;;;;;5024041;28;20078;-77
2023/05/12 07:26:59;;;;;;;;;;;13.70;91.90;;;;;;5022940;28;19984;-76
2023/05/12 07:29:26;;;;;;;;;;;13.70;91.80;;;;;;5018620;28;20532;-77
2023/05/12 07:31:52;;;;;;;;;;;13.70;91.80;;;;;;5019237;28;20002;-76
2023/05/12 07:34:20;;;;;;;;;;;13.70;91.80;;;;;;5024050;28;19983;-77
2023/05/12 07:36:46;;;;;;;;;;;13.80;91.80;;;;;;5024961;28;19980;-76
2023/05/12 07:39:13;;;;;;;;;;;13.70;91.80;;;;;;5019006;28;20026;-77
2023/05/12 07:41:40;;;;;;;;;;;13.80;91.90;;;;;;5022807;28;20054;-77
2023/05/12 07:44:08;;;;;;;;;;;13.80;91.90;;;;;;5022876;28;19977;-77
2023/05/12 07:46:35;;;;;;;;;;;13.80;92.00;;;;;;5022565;28;20007;-76
2023/05/12 07:49:01;;;;;;;;;;;13.80;91.90;;;;;;5024552;28;20365;-77
2023/05/12 07:51:28;;;;;;;;;;;13.80;91.90;;;;;;5023439;28;20171;-77
2023/05/12 07:53:56;;;;;;;;;;;13.80;91.90;;;;;;5022598;28;20076;-77
2023/05/12 07:56:23;;;;;;;;;;;13.80;91.90;;;;;;5022992;28;19991;-77
2023/05/12 07:58:50;;;;;;;;;;;13.80;91.90;;;;;;5020165;28;19980;-77
2023/05/12 08:01:18;;;;;;;;;;;13.80;92.00;;;;;;5022273;28;19999;-76
2023/05/12 08:03:44;;;;;;;;;;;13.90;92.00;;;;;;5018396;28;20674;-76
2023/05/12 08:06:11;;;;;;;;;;;13.90;92.00;;;;;;5016552;28;19996;-77
2023/05/12 08:08:37;;;;;;;;;;;13.90;92.00;;;;;;5021703;28;19976;-76
2023/05/12 08:11:04;;;;;;;;;;;13.90;92.00;;;;;;5016461;28;19984;-77
2023/05/12 08:13:31;;;;;;;;;;;13.90;91.90;;;;;;5015113;28;20066;-77
2023/05/12 08:15:57;;;;;;;;;;;13.90;91.90;;;;;;5019029;28;20000;-77
2023/05/12 08:18:25;;;;;;;;;;;13.90;91.90;;;;;;5018859;28;19984;-76
2023/05/12 08:20:52;;;;;;;;;;;13.90;91.80;;;;;;5017721;28;19976;-77
2023/05/12 08:23:18;;;;;;;;;;;13.90;91.80;;;;;;5017277;28;20478;-77
2023/05/12 08:25:47;;;;;;;;;;;13.90;91.80;;;;;;5017550;28;20011;-77
2023/05/12 08:28:14;;;;;;;;;;;13.90;91.80;;;;;;5019097;28;19976;-77
2023/05/12 08:30:41;;;;;;;;;;;14.00;91.80;;;;;;5019689;28;19996;-77
2023/05/12 08:33:07;;;;;;;;;;;13.90;91.70;;;;;;5016420;28;19976;-77
2023/05/12 08:35:35;;;;;;;;;;;14.00;91.70;;;;;;5016684;28;19999;-76
2023/05/12 08:38:02;;;;;;;;;;;14.00;91.70;;;;;;5018653;28;19998;-76
2023/05/12 08:40:30;;;;;;;;;;;14.00;91.70;;;;;;5018391;28;19983;-77
2023/05/12 08:42:59;;;;;;;;;;;14.00;91.70;;;;;;5019088;28;20000;-77
2023/05/12 08:45:26;;;;;;;;;;;14.00;91.70;;;;;;5015021;28;20010;-77
2023/05/12 08:47:53;;;;;;;;;;;14.00;91.70;;;;;;5016924;28;19976;-79
2023/05/12 08:50:22;;;;;;;;;;;14.00;91.60;;;;;;5024395;28;19992;-77
2023/05/12 08:52:50;;;;;;;;;;;14.00;91.60;;;;;;5024131;28;20074;-77
2023/05/12 08:55:17;;;;;;;;;;;14.00;91.60;;;;;;5019913;28;20002;-77
2023/05/12 08:57:47;;;;;;;;;;;14.00;91.60;;;;;;5018406;28;19987;-77
2023/05/12 09:00:14;;;;;;;;;;;14.10;91.60;;;;;;5017732;28;19981;-77
2023/05/12 09:02:42;;;;;;;;;;;14.10;91.60;;;;;;5017458;28;19980;-77
2023/05/12 09:05:09;;;;;;;;;;;14.10;91.60;;;;;;5015490;28;19996;-77
2023/05/12 09:07:36;;;;;;;;;;;14.10;91.50;;;;;;5009486;28;19980;-78
2023/05/12 09:10:06;;;;;;;;;;;14.10;91.60;;;;;;5015797;28;19992;-77
2023/05/12 09:12:34;;;;;;;;;;;14.10;91.60;;;;;;5014530;28;19976;-78
2023/05/12 09:15:03;;;;;;;;;;;14.10;91.50;;;;;;5021009;28;19988;-77
2023/05/12 09:17:30;;;;;;;;;;;14.10;91.50;;;;;;5018391;28;20000;-78
2023/05/12 09:19:57;;;;;;;;;;;14.10;91.50;;;;;;5018323;28;19980;-77
2023/05/12 09:22:28;;;;;;;;;;;14.10;91.50;;;;;;5016399;28;19984;-78
2023/05/12 09:24:54;;;;;;;;;;;14.10;91.50;;;;;;5015614;28;20004;-77
2023/05/12 09:27:26;;;;;;;;;;;14.10;91.60;;;;;;5021164;28;20416;-76
2023/05/12 09:29:52;;;;;;;;;;;14.20;91.60;;;;;;5018288;28;20090;-77
2023/05/12 09:32:29;;;;;;;;;;;14.10;91.70;;;;;;5010581;28;19996;-77
2023/05/12 09:34:56;;;;;;;;;;;14.20;91.80;;;;;;5020103;28;20030;-76
2023/05/12 09:37:30;;;;;;;;;;;14.20;91.80;;;;;;5027213;28;19989;-76
2023/05/12 09:39:58;;;;;;;;;;;14.20;91.90;;;;;;5018896;28;19987;-76
2023/05/12 09:42:29;;;;;;;;;;;14.20;92.00;;;;;;5018719;28;19976;-75
2023/05/12 09:44:58;;;;;;;;;;;14.20;92.10;;;;;;5018179;28;20000;-76
2023/05/12 09:47:26;;;;;;;;;;;14.20;92.10;;;;;;5018897;28;20055;-76
2023/05/12 09:49:55;;;;;;;;;;;14.20;92.20;;;;;;5016275;28;19999;-76
2023/05/12 09:52:22;;;;;;;;;;;14.20;92.20;;;;;;5018595;28;19976;-76
2023/05/12 09:54:48;;;;;;;;;;;14.20;92.20;;;;;;5017528;28;19996;-76
2023/05/12 09:57:16;;;;;;;;;;;14.20;92.30;;;;;;5019152;28;20758;-76
2023/05/12 09:59:44;;;;;;;;;;;14.20;92.50;;;;;;5012628;28;19983;-76
2023/05/12 10:02:14;;;;;;;;;;;14.20;92.60;;;;;;5019830;28;19995;-77
2023/05/12 10:04:44;;;;;;;;;;;14.20;92.70;;;;;;5017266;28;20012;-76
2023/05/12 10:07:11;;;;;;;;;;;14.20;92.80;;;;;;5023649;28;19983;-70
2023/05/12 10:09:40;;;;;;;;;;;14.20;92.80;;;;;;5023461;28;20000;-69
2023/05/12 10:12:08;;;;;;;;;;;14.20;92.80;;;;;;5026714;28;20083;-70
2023/05/12 10:14:35;;;;;;;;;;;14.20;92.80;;;;;;5027379;28;20450;-70
2023/05/12 10:17:03;;;;;;;;;;;14.20;92.80;;;;;;5029067;28;20097;-69
2023/05/12 10:19:30;;;;;;;;;;;14.20;92.70;;;;;;5026977;28;19976;-70
2023/05/12 10:21:57;;;;;;;;;;;14.30;92.70;;;;;;5025882;28;20313;-69
2023/05/12 10:24:25;;;;;;;;;;;14.30;92.70;;;;;;5021464;28;19983;-69
2023/05/12 10:26:52;;;;;;;;;;;14.30;92.60;;;;;;5026484;28;19984;-70
2023/05/12 10:29:19;;;;;;;;;;;14.30;92.60;;;;;;5022413;28;20019;-70
2023/05/12 10:31:46;;;;;;;;;;;14.30;92.50;;;;;;5021556;28;20004;-69
2023/05/12 10:34:18;;;;;;;;;;;14.30;92.40;;;;;;5027877;28;20143;-69
2023/05/12 10:36:46;;;;;;;;;;;14.40;92.40;;;;;;5023798;28;20118;-70
2023/05/12 10:39:13;;;;;;;;;;;14.40;92.30;;;;;;5027178;28;19987;-69
2023/05/12 10:41:40;;;;;;;;;;;14.40;92.20;;;;;;5026670;28;20178;-69
2023/05/12 10:44:07;;;;;;;;;;;14.40;92.20;;;;;;5027906;28;20062;-69
2023/05/12 10:46:34;;;;;;;;;;;14.50;92.10;;;;;;5022698;28;20066;-69
2023/05/12 10:49:03;;;;;;;;;;;14.50;92.20;;;;;;5026240;28;19976;-69
2023/05/12 10:51:32;;;;;;;;;;;14.50;92.10;;;;;;5025928;28;20022;-69
2023/05/12 10:54:01;;;;;;;;;;;14.60;92.20;;;;;;5026617;28;19980;-69
2023/05/12 10:56:28;;;;;;;;;;;14.60;92.30;;;;;;5026166;28;19988;-69
2023/05/12 10:59:08;;;;;;;;;;;14.60;92.40;;;;;;5026000;28;19976;-69
2023/05/12 11:01:34;;;;;;;;;;;14.60;92.50;;;;;;5026945;28;20094;-69
2023/05/12 11:04:09;;;;;;;;;;;14.60;92.60;;;;;;5026644;28;19984;-69
2023/05/12 11:06:38;;;;;;;;;;;14.60;92.60;;;;;;5021846;28;20003;-69
2023/05/12 11:09:04;;;;;;;;;;;14.60;92.60;;;;;;5022039;28;19976;-69
2023/05/12 11:11:31;;;;;;;;;;;14.60;92.80;;;;;;5022405;28;20853;-75
2023/05/12 11:13:58;;;;;;;;;;;14.60;92.80;;;;;;5024554;28;19980;-76
2023/05/12 11:16:24;;;;;;;;;;;14.60;92.80;;;;;;5021423;28;20018;-76
2023/05/12 11:19:00;;;;;;;;;;;14.60;92.70;;;;;;5018649;28;20086;-75
2023/05/12 11:21:27;;;;;;;;;;;14.60;92.80;;;;;;5014514;28;20001;-75
2023/05/12 11:23:56;;;;;;;;;;;14.60;92.80;;;;;;5017421;28;20690;-75
2023/05/12 11:26:22;;;;;;;;;;;14.60;92.90;;;;;;5020284;28;20007;-74
2023/05/12 11:28:49;;;;;;;;;;;14.60;92.90;;;;;;5015326;28;19984;-76
2023/05/12 11:31:17;;;;;;;;;;;14.70;92.90;;;;;;5020626;28;20000;-75
2023/05/12 11:33:44;;;;;;;;;;;14.70;92.90;;;;;;5016647;28;19980;-76
2023/05/12 11:36:10;;;;;;;;;;;14.70;92.80;;;;;;5017179;28;19999;-75
2023/05/12 11:38:37;;;;;;;;;;;14.70;92.80;;;;;;5018217;28;20095;-76
2023/05/12 11:41:05;;;;;;;;;;;14.70;92.70;;;;;;5018173;28;19980;-76
2023/05/12 11:43:32;;;;;;;;;;;14.70;92.80;;;;;;5016310;28;19984;-76
2023/05/12 11:45:58;;;;;;;;;;;14.80;92.80;;;;;;5016776;28;20004;-75
2023/05/12 11:48:32;;;;;;;;;;;14.80;92.80;;;;;;5022141;28;19976;-75
2023/05/12 11:50:59;;;;;;;;;;;14.80;92.90;;;;;;5020472;28;20046;-74
2023/05/12 11:53:26;;;;;;;;;;;14.80;92.90;;;;;;5022513;28;19980;-75
2023/05/12 11:55:54;;;;;;;;;;;14.80;92.80;;;;;;5022714;28;20000;-74
2023/05/12 11:58:24;;;;;;;;;;;14.80;92.80;;;;;;5016905;28;19976;-75
2023/05/12 12:00:51;;;;;;;;;;;14.80;92.90;;;;;;5014256;28;20516;-76
2023/05/12 12:03:18;;;;;;;;;;;14.90;92.90;;;;;;5021451;28;20019;-76
2023/05/12 12:05:56;;;;;;;;;;;14.90;92.80;;;;;;5018267;28;19995;-76
2023/05/12 12:08:23;;;;;;;;;;;14.90;92.70;;;;;;5019208;28;20024;-76
2023/05/12 12:10:49;;;;;;;;;;;15.00;92.70;;;;;;5022413;28;19992;-76
2023/05/12 12:13:19;;;;;;;;;;;15.00;92.60;;;;;;5019760;28;19980;-76
2023/05/12 12:15:47;;;;;;;;;;;15.10;92.50;;;;;;5017299;28;20461;-76
2023/05/12 12:18:14;;;;;;;;;;;15.10;92.40;;;;;;5019020;28;20107;-76
2023/05/12 12:20:41;;;;;;;;;;;15.20;92.40;;;;;;5018664;28;19976;-75
2023/05/12 12:23:07;;;;;;;;;;;15.20;92.40;;;;;;5019625;28;19972;-76
2023/05/12 12:25:34;;;;;;;;;;;15.20;92.30;;;;;;5022320;28;19995;-74
2023/05/12 12:28:01;;;;;;;;;;;15.30;92.40;;;;;;5021731;28;19980;-75
2023/05/12 12:30:28;;;;;;;;;;;15.30;92.40;;;;;;5020086;28;20390;-75
2023/05/12 12:32:56;;;;;;;;;;;15.30;92.30;;;;;;5016445;28;19996;-75
2023/05/12 12:35:23;;;;;;;;;;;15.30;92.30;;;;;;5021236;28;19992;-75
2023/05/12 12:37:51;;;;;;;;;;;15.40;92.40;;;;;;5021690;28;20741;-75
2023/05/12 12:40:18;;;;;;;;;;;15.40;92.40;;;;;;5020615;28;20576;-75
2023/05/12 12:42:44;;;;;;;;;;;15.40;92.40;;;;;;5017866;28;19977;-75
2023/05/12 12:45:12;;;;;;;;;;;15.40;92.30;;;;;;5022132;28;19995;-75
2023/05/12 12:47:38;;;;;;;;;;;15.50;92.30;;;;;;5022094;28;20621;-75
2023/05/12 12:50:08;;;;;;;;;;;15.50;92.30;;;;;;5020006;28;19972;-74
2023/05/12 12:52:36;;;;;;;;;;;15.60;92.20;;;;;;5020244;28;19976;-74
2023/05/12 12:55:02;;;;;;;;;;;15.60;92.20;;;;;;5023211;28;20440;-74
2023/05/12 12:57:29;;;;;;;;;;;15.60;92.10;;;;;;5027914;28;20059;-75
2023/05/12 12:59:55;;;;;;;;;;;15.60;92.10;;;;;;5016527;28;19987;-74
2023/05/12 13:02:22;;;;;;;;;;;15.70;92.20;;;;;;5017673;28;20665;-74
2023/05/12 13:04:49;;;;;;;;;;;15.60;92.50;;;;;;5019794;28;19996;-74
2023/05/12 13:07:17;;;;;;;;;;;15.70;92.30;;;;;;5021461;28;20106;-74
2023/05/12 13:09:44;;;;;;;;;;;15.70;92.30;;;;;;5020984;28;19983;-75
2023/05/12 13:12:10;;;;;;;;;;;15.60;92.40;;;;;;5021805;28;19995;-74
2023/05/12 13:14:37;;;;;;;;;;;15.60;92.40;;;;;;5021536;28;19976;-74
2023/05/12 13:17:04;;;;;;;;;;;15.70;92.40;;;;;;5019625;28;19992;-74
2023/05/12 13:19:30;;;;;;;;;;;15.70;92.50;;;;;;5017395;28;19984;-75
2023/05/12 13:21:57;;;;;;;;;;;15.60;92.50;;;;;;5018951;28;19996;-74
2023/05/12 13:24:24;;;;;;;;;;;15.70;92.60;;;;;;5016458;28;20645;-75
2023/05/12 13:26:51;;;;;;;;;;;15.70;92.60;;;;;;5020127;28;19980;-69
2023/05/12 13:29:18;;;;;;;;;;;15.70;92.60;;;;;;5021526;28;19975;-69
2023/05/12 13:31:45;;;;;;;;;;;15.70;92.60;;;;;;5018358;28;20126;-68
2023/05/12 13:34:11;;;;;;;;;;;15.70;92.60;;;;;;5024112;28;19976;-69
2023/05/12 13:36:38;;;;;;;;;;;15.80;92.60;;;;;;5010281;28;20579;-69
2023/05/12 13:39:05;;;;;;;;;;;15.80;92.50;;;;;;5020275;28;20058;-68
2023/05/12 13:41:33;;;;;;;;;;;15.80;92.50;;;;;;5022409;28;20575;-69
2023/05/12 13:43:59;;;;;;;;;;;15.80;92.80;;;;;;5023127;28;19980;-69
2023/05/12 13:46:26;;;;;;;;;;;15.90;92.50;;;;;;5026256;28;19995;-69
2023/05/12 13:48:52;;;;;;;;;;;15.90;92.50;;;;;;5020778;28;19980;-69
2023/05/12 13:51:19;;;;;;;;;;;15.90;92.50;;;;;;5017898;28;20053;-68
2023/05/12 13:53:46;;;;;;;;;;;15.90;92.40;;;;;;5020504;28;19980;-68
2023/05/12 13:56:14;;;;;;;;;;;15.90;92.40;;;;;;5021096;28;20474;-69
2023/05/12 13:58:41;;;;;;;;;;;15.90;92.40;;;;;;5020164;28;19984;-69
2023/05/12 14:01:08;;;;;;;;;;;15.90;92.40;;;;;;5020303;28;19992;-76
2023/05/12 14:03:35;;;;;;;;;;;15.90;92.50;;;;;;5018718;28;19987;-77
2023/05/12 14:06:02;;;;;;;;;;;15.90;92.50;;;;;;5017307;28;19999;-76
2023/05/12 14:08:28;;;;;;;;;;;15.90;92.60;;;;;;5017657;28;19976;-75
2023/05/12 14:10:55;;;;;;;;;;;15.90;92.60;;;;;;5018294;28;20011;-76
2023/05/12 14:13:23;;;;;;;;;;;15.90;92.60;;;;;;5015103;28;19983;-76
2023/05/12 14:15:50;;;;;;;;;;;15.90;92.70;;;;;;5017282;28;20004;-76